Jump to content


SKYWEST AIRLINES FLIGHT OO9205 FLOWN ON 01-26-2018 BY CAPTAIN JIM BOERMAN

Pilot StatsCaptain Jim Boerman (LDP136) • 4,917.8 total hours • 1,480 total flights [View Logbook]
FLIGHT DETAILS
StatusReceived and approved on 2018-01-26 at 11:01:25
Origin AirportKennedy Intl (KJFK) • New York, New York, United States (13 feet MSL)
Filed Flight PlanKJFK LAURN J222 RBV J230 SAAME J6 COLNS J134 FLM KCVG
Destination AirportCincinnati-Northern Ky Intl (KCVG) • Cincinnati, Ohio, United States (896 feet MSL)
Alternate AirportIndianapolis Intl (KIND) • Indianapolis, Indiana, United States (797 feet MSL)
AirlineSkywest Airlines
AircraftBombardier CRJ-900 (CR9 / CRJ-900)
FS Aircraft UsedCRJ900ER Delta Airways N806SK
Cruising AltitudeFL360
Distance Flown510 nautical miles
Passengers Onboard85 passengers (98.84% full)
DEPARTURE DETAILS
Time Out09:08:01
Taxi Data73,891 lbs total with 11,651 lbs of fuel onboard
Takeoff Data09:22:17 (14 minutes after leaving gate/ramp) • 74,075 lbs total • 7° pitch at 161 knots
Departure METARKJFK 261251Z 03003KT 10SM FEW250 M03/M14 A3072 RMK AO2 SLP402 T10331144
ARRIVAL DETAILS
Landing Data11:08:23 • 67,704 lbs total • 3° pitch doing 121 knots at a rate of -92.27 feet/minute with 4,426 lbs of fuel onboard
Time In11:19:09 (11 minutes after landing)
Ramp Weight67,358 lbs total
Total Fuel Used7,225 lbs
Total Block Time02:11:06 (2.2 hours) while 25 minutes were spent on the ground
Arrival METARKCVG 261552Z 19011KT 10SM FEW300 08/M02 A3046 RMK AO2 SLP318 T00831022
MISCELLANEOUS DETAILS
LiveDISPATCH Version4.8.3.1
FS Version
FSUIPC Version5.12
OS VersionWindows 7 32-bit
Screen Resolution1920 x 1080
Pilot's CommentsNo Comments Reported
FLIGHT MAP